sensor_id;sensor_type;location;lat;lon;timestamp;P1;durP1;ratioP1;P2;durP2;ratioP2
76848;SDS011;65814;51.134;16.980;2022-12-18T00:02:12;17.10;;;10.10;;
76848;SDS011;65814;51.134;16.980;2022-12-18T00:04:39;22.90;;;10.30;;
76848;SDS011;65814;51.134;16.980;2022-12-18T00:07:06;27.10;;;11.40;;
76848;SDS011;65814;51.134;16.980;2022-12-18T00:09:32;18.50;;;10.60;;
76848;SDS011;65814;51.134;16.980;2022-12-18T00:14:44;17.10;;;9.80;;
76848;SDS011;65814;51.134;16.980;2022-12-18T00:17:10;17.50;;;8.50;;
76848;SDS011;65814;51.134;16.980;2022-12-18T00:19:37;12.90;;;7.10;;
76848;SDS011;65814;51.134;16.980;2022-12-18T00:22:04;16.60;;;9.40;;
76848;SDS011;65814;51.134;16.980;2022-12-18T00:24:32;16.30;;;8.50;;
76848;SDS011;65814;51.134;16.980;2022-12-18T00:26:58;16.90;;;8.90;;
76848;SDS011;65814;51.134;16.980;2022-12-18T00:29:25;15.10;;;8.80;;
76848;SDS011;65814;51.134;16.980;2022-12-18T00:31:51;16.40;;;8.60;;
76848;SDS011;65814;51.134;16.980;2022-12-18T00:34:18;15.10;;;8.70;;
76848;SDS011;65814;51.134;16.980;2022-12-18T00:36:46;18.50;;;10.30;;
76848;SDS011;65814;51.134;16.980;2022-12-18T00:39:13;19.60;;;9.70;;
76848;SDS011;65814;51.134;16.980;2022-12-18T00:41:40;26.20;;;12.00;;
76848;SDS011;65814;51.134;16.980;2022-12-18T00:44:25;20.50;;;9.60;;
76848;SDS011;65814;51.134;16.980;2022-12-18T00:46:52;16.10;;;10.00;;
76848;SDS011;65814;51.134;16.980;2022-12-18T00:49:19;17.30;;;8.80;;
76848;SDS011;65814;51.134;16.980;2022-12-18T00:51:46;18.70;;;9.70;;
76848;SDS011;65814;51.134;16.980;2022-12-18T00:56:40;15.30;;;8.90;;
76848;SDS011;65814;51.134;16.980;2022-12-18T00:59:15;18.20;;;9.00;;
76848;SDS011;65814;51.134;16.980;2022-12-18T01:01:42;17.00;;;9.40;;
76848;SDS011;65814;51.134;16.980;2022-12-18T01:04:09;18.20;;;9.30;;
76848;SDS011;65814;51.134;16.980;2022-12-18T01:06:36;22.40;;;10.20;;
76848;SDS011;65814;51.134;16.980;2022-12-18T01:09:02;18.10;;;8.40;;
76848;SDS011;65814;51.134;16.980;2022-12-18T01:11:29;18.90;;;9.60;;
76848;SDS011;65814;51.134;16.980;2022-12-18T01:13:59;24.50;;;12.10;;
76848;SDS011;65814;51.134;16.980;2022-12-18T01:16:25;27.20;;;13.60;;
76848;SDS011;65814;51.134;16.980;2022-12-18T01:18:53;21.60;;;11.90;;
76848;SDS011;65814;51.134;16.980;2022-12-18T01:21:20;20.00;;;9.00;;
76848;SDS011;65814;51.134;16.980;2022-12-18T01:23:51;23.20;;;9.00;;
76848;SDS011;65814;51.134;16.980;2022-12-18T01:26:18;20.40;;;9.50;;
76848;SDS011;65814;51.134;16.980;2022-12-18T01:28:45;16.10;;;8.90;;
76848;SDS011;65814;51.134;16.980;2022-12-18T01:31:19;17.90;;;9.50;;
76848;SDS011;65814;51.134;16.980;2022-12-18T01:33:49;17.70;;;10.50;;
76848;SDS011;65814;51.134;16.980;2022-12-18T01:36:25;15.80;;;8.90;;
76848;SDS011;65814;51.134;16.980;2022-12-18T01:38:56;16.70;;;8.40;;
76848;SDS011;65814;51.134;16.980;2022-12-18T01:41:24;17.70;;;9.40;;
76848;SDS011;65814;51.134;16.980;2022-12-18T01:46:21;14.10;;;8.20;;
76848;SDS011;65814;51.134;16.980;2022-12-18T01:48:53;17.90;;;8.50;;
76848;SDS011;65814;51.134;16.980;2022-12-18T01:51:21;18.70;;;8.80;;
76848;SDS011;65814;51.134;16.980;2022-12-18T01:53:48;20.90;;;10.20;;
76848;SDS011;65814;51.134;16.980;2022-12-18T01:56:16;20.90;;;10.80;;
76848;SDS011;65814;51.134;16.980;2022-12-18T01:58:52;12.60;;;7.10;;
76848;SDS011;65814;51.134;16.980;2022-12-18T02:01:22;21.30;;;9.50;;
76848;SDS011;65814;51.134;16.980;2022-12-18T02:03:51;15.10;;;9.10;;
76848;SDS011;65814;51.134;16.980;2022-12-18T02:11:39;19.80;;;9.40;;
76848;SDS011;65814;51.134;16.980;2022-12-18T02:16:57;16.20;;;9.70;;
76848;SDS011;65814;51.134;16.980;2022-12-18T02:19:47;17.30;;;8.70;;
76848;SDS011;65814;51.134;16.980;2022-12-18T02:22:19;17.10;;;9.20;;
76848;SDS011;65814;51.134;16.980;2022-12-18T02:24:57;17.50;;;7.70;;
76848;SDS011;65814;51.134;16.980;2022-12-18T02:27:38;13.30;;;8.30;;
76848;SDS011;65814;51.134;16.980;2022-12-18T02:30:06;27.00;;;10.90;;
76848;SDS011;65814;51.134;16.980;2022-12-18T02:32:34;18.30;;;9.70;;
76848;SDS011;65814;51.134;16.980;2022-12-18T02:35:05;16.70;;;9.20;;
76848;SDS011;65814;51.134;16.980;2022-12-18T02:37:33;17.00;;;8.80;;
76848;SDS011;65814;51.134;16.980;2022-12-18T02:40:04;16.50;;;9.30;;
76848;SDS011;65814;51.134;16.980;2022-12-18T02:42:31;16.90;;;8.60;;
76848;SDS011;65814;51.134;16.980;2022-12-18T02:47:27;17.10;;;9.10;;
76848;SDS011;65814;51.134;16.980;2022-12-18T02:57:49;17.00;;;8.60;;
76848;SDS011;65814;51.134;16.980;2022-12-18T03:00:24;16.20;;;8.40;;
76848;SDS011;65814;51.134;16.980;2022-12-18T03:03:04;16.70;;;8.60;;
76848;SDS011;65814;51.134;16.980;2022-12-18T03:05:50;16.40;;;8.60;;
76848;SDS011;65814;51.134;16.980;2022-12-18T03:08:23;28.20;;;11.50;;
76848;SDS011;65814;51.134;16.980;2022-12-18T03:10:58;20.60;;;10.00;;
76848;SDS011;65814;51.134;16.980;2022-12-18T03:16:31;17.60;;;8.40;;
76848;SDS011;65814;51.134;16.980;2022-12-18T03:19:01;17.90;;;9.80;;
76848;SDS011;65814;51.134;16.980;2022-12-18T03:21:31;15.70;;;8.60;;
76848;SDS011;65814;51.134;16.980;2022-12-18T03:24:04;14.40;;;9.50;;
76848;SDS011;65814;51.134;16.980;2022-12-18T03:26:33;18.90;;;9.40;;
76848;SDS011;65814;51.134;16.980;2022-12-18T03:29:06;15.90;;;9.50;;
76848;SDS011;65814;51.134;16.980;2022-12-18T03:31:35;16.70;;;10.80;;
76848;SDS011;65814;51.134;16.980;2022-12-18T03:34:09;17.00;;;10.20;;
76848;SDS011;65814;51.134;16.980;2022-12-18T03:36:39;19.00;;;9.10;;
76848;SDS011;65814;51.134;16.980;2022-12-18T03:39:06;19.20;;;9.10;;
76848;SDS011;65814;51.134;16.980;2022-12-18T03:46:51;19.40;;;10.50;;
76848;SDS011;65814;51.134;16.980;2022-12-18T03:54:44;15.70;;;9.00;;
76848;SDS011;65814;51.134;16.980;2022-12-18T03:57:13;18.60;;;9.50;;
76848;SDS011;65814;51.134;16.980;2022-12-18T03:59:43;14.20;;;8.70;;
76848;SDS011;65814;51.134;16.980;2022-12-18T04:02:10;13.20;;;7.80;;
76848;SDS011;65814;51.134;16.980;2022-12-18T04:04:38;18.20;;;8.90;;
76848;SDS011;65814;51.134;16.980;2022-12-18T04:07:05;15.80;;;9.00;;
76848;SDS011;65814;51.134;16.980;2022-12-18T04:09:33;15.50;;;8.40;;
76848;SDS011;65814;51.134;16.980;2022-12-18T04:12:00;13.20;;;8.20;;
76848;SDS011;65814;51.134;16.980;2022-12-18T04:14:26;16.50;;;8.60;;
76848;SDS011;65814;51.134;16.980;2022-12-18T04:16:53;16.50;;;8.20;;
76848;SDS011;65814;51.134;16.980;2022-12-18T04:19:20;22.60;;;10.30;;
76848;SDS011;65814;51.134;16.980;2022-12-18T04:21:46;16.60;;;9.30;;
76848;SDS011;65814;51.134;16.980;2022-12-18T04:24:13;16.70;;;8.20;;
76848;SDS011;65814;51.134;16.980;2022-12-18T04:26:39;19.40;;;7.90;;
76848;SDS011;65814;51.134;16.980;2022-12-18T04:29:06;17.50;;;8.50;;
76848;SDS011;65814;51.134;16.980;2022-12-18T04:31:32;13.10;;;8.70;;
76848;SDS011;65814;51.134;16.980;2022-12-18T04:33:59;18.30;;;9.50;;
76848;SDS011;65814;51.134;16.980;2022-12-18T04:36:26;18.00;;;9.00;;
76848;SDS011;65814;51.134;16.980;2022-12-18T04:38:52;15.70;;;8.90;;
76848;SDS011;65814;51.134;16.980;2022-12-18T04:41:19;16.90;;;7.90;;
76848;SDS011;65814;51.134;16.980;2022-12-18T04:43:45;20.60;;;9.50;;
76848;SDS011;65814;51.134;16.980;2022-12-18T04:46:12;15.70;;;9.10;;
76848;SDS011;65814;51.134;16.980;2022-12-18T04:48:39;16.50;;;8.40;;
76848;SDS011;65814;51.134;16.980;2022-12-18T04:51:05;16.00;;;10.00;;
76848;SDS011;65814;51.134;16.980;2022-12-18T04:53:33;15.90;;;9.00;;
76848;SDS011;65814;51.134;16.980;2022-12-18T04:56:06;22.40;;;9.80;;
76848;SDS011;65814;51.134;16.980;2022-12-18T04:58:35;19.70;;;9.80;;
76848;SDS011;65814;51.134;16.980;2022-12-18T05:01:02;15.70;;;8.50;;
76848;SDS011;65814;51.134;16.980;2022-12-18T05:03:29;16.60;;;8.60;;
76848;SDS011;65814;51.134;16.980;2022-12-18T05:05:56;15.90;;;8.50;;
76848;SDS011;65814;51.134;16.980;2022-12-18T05:08:23;13.70;;;8.40;;
76848;SDS011;65814;51.134;16.980;2022-12-18T05:10:50;18.80;;;9.30;;
76848;SDS011;65814;51.134;16.980;2022-12-18T05:13:28;15.80;;;8.10;;
76848;SDS011;65814;51.134;16.980;2022-12-18T05:15:55;15.60;;;8.80;;
76848;SDS011;65814;51.134;16.980;2022-12-18T05:18:22;13.30;;;8.00;;
76848;SDS011;65814;51.134;16.980;2022-12-18T05:20:50;17.70;;;8.60;;
76848;SDS011;65814;51.134;16.980;2022-12-18T05:23:17;18.40;;;9.10;;
76848;SDS011;65814;51.134;16.980;2022-12-18T05:28:21;14.20;;;7.90;;
76848;SDS011;65814;51.134;16.980;2022-12-18T05:30:52;17.30;;;8.80;;
76848;SDS011;65814;51.134;16.980;2022-12-18T05:33:20;16.20;;;8.30;;
76848;SDS011;65814;51.134;16.980;2022-12-18T05:35:55;21.40;;;10.00;;
76848;SDS011;65814;51.134;16.980;2022-12-18T05:38:26;17.90;;;10.90;;
76848;SDS011;65814;51.134;16.980;2022-12-18T05:40:53;17.60;;;9.60;;
76848;SDS011;65814;51.134;16.980;2022-12-18T05:43:20;17.70;;;9.20;;
76848;SDS011;65814;51.134;16.980;2022-12-18T05:45:48;17.70;;;9.20;;
76848;SDS011;65814;51.134;16.980;2022-12-18T05:48:16;18.10;;;9.40;;
76848;SDS011;65814;51.134;16.980;2022-12-18T05:50:43;12.60;;;8.00;;
76848;SDS011;65814;51.134;16.980;2022-12-18T05:53:14;17.60;;;9.10;;
76848;SDS011;65814;51.134;16.980;2022-12-18T05:55:42;17.90;;;8.80;;
76848;SDS011;65814;51.134;16.980;2022-12-18T05:58:10;19.90;;;9.40;;
76848;SDS011;65814;51.134;16.980;2022-12-18T06:00:38;17.90;;;9.80;;
76848;SDS011;65814;51.134;16.980;2022-12-18T06:03:07;18.90;;;8.40;;
76848;SDS011;65814;51.134;16.980;2022-12-18T06:05:38;13.30;;;8.10;;
76848;SDS011;65814;51.134;16.980;2022-12-18T06:08:06;18.00;;;8.30;;
76848;SDS011;65814;51.134;16.980;2022-12-18T06:10:33;14.40;;;8.00;;
76848;SDS011;65814;51.134;16.980;2022-12-18T06:12:59;12.60;;;7.60;;
76848;SDS011;65814;51.134;16.980;2022-12-18T06:15:26;14.30;;;8.60;;
76848;SDS011;65814;51.134;16.980;2022-12-18T06:17:53;25.20;;;11.20;;
76848;SDS011;65814;51.134;16.980;2022-12-18T06:20:20;22.50;;;10.60;;
76848;SDS011;65814;51.134;16.980;2022-12-18T06:22:49;18.10;;;10.40;;
76848;SDS011;65814;51.134;16.980;2022-12-18T06:25:16;18.40;;;11.30;;
76848;SDS011;65814;51.134;16.980;2022-12-18T06:27:43;18.10;;;11.60;;
76848;SDS011;65814;51.134;16.980;2022-12-18T06:30:10;16.50;;;9.30;;
76848;SDS011;65814;51.134;16.980;2022-12-18T06:32:37;19.50;;;10.80;;
76848;SDS011;65814;51.134;16.980;2022-12-18T06:35:04;20.30;;;11.10;;
76848;SDS011;65814;51.134;16.980;2022-12-18T06:37:31;18.20;;;11.50;;
76848;SDS011;65814;51.134;16.980;2022-12-18T06:39:57;22.90;;;11.80;;
76848;SDS011;65814;51.134;16.980;2022-12-18T06:42:24;19.50;;;11.40;;
76848;SDS011;65814;51.134;16.980;2022-12-18T06:44:51;19.40;;;11.10;;
76848;SDS011;65814;51.134;16.980;2022-12-18T06:47:18;18.90;;;10.40;;
76848;SDS011;65814;51.134;16.980;2022-12-18T06:49:44;19.40;;;10.70;;
76848;SDS011;65814;51.134;16.980;2022-12-18T06:52:11;27.70;;;11.90;;
76848;SDS011;65814;51.134;16.980;2022-12-18T06:54:37;25.40;;;12.00;;
76848;SDS011;65814;51.134;16.980;2022-12-18T06:57:04;18.90;;;11.20;;
76848;SDS011;65814;51.134;16.980;2022-12-18T06:59:30;27.90;;;14.10;;
76848;SDS011;65814;51.134;16.980;2022-12-18T07:01:57;21.10;;;13.40;;
76848;SDS011;65814;51.134;16.980;2022-12-18T07:04:29;21.70;;;11.60;;
76848;SDS011;65814;51.134;16.980;2022-12-18T07:06:55;22.00;;;13.50;;
76848;SDS011;65814;51.134;16.980;2022-12-18T07:09:23;23.90;;;11.60;;
76848;SDS011;65814;51.134;16.980;2022-12-18T07:11:50;22.30;;;14.10;;
76848;SDS011;65814;51.134;16.980;2022-12-18T07:14:16;21.80;;;13.30;;
76848;SDS011;65814;51.134;16.980;2022-12-18T07:16:43;24.90;;;12.40;;
76848;SDS011;65814;51.134;16.980;2022-12-18T07:19:10;19.10;;;11.90;;
76848;SDS011;65814;51.134;16.980;2022-12-18T07:21:36;21.90;;;10.80;;
76848;SDS011;65814;51.134;16.980;2022-12-18T07:24:03;22.40;;;11.80;;
76848;SDS011;65814;51.134;16.980;2022-12-18T07:26:30;25.10;;;13.10;;
76848;SDS011;65814;51.134;16.980;2022-12-18T07:28:57;25.90;;;13.60;;
76848;SDS011;65814;51.134;16.980;2022-12-18T07:31:24;26.10;;;12.90;;
76848;SDS011;65814;51.134;16.980;2022-12-18T07:36:18;25.70;;;11.80;;
76848;SDS011;65814;51.134;16.980;2022-12-18T07:38:48;17.80;;;11.90;;
76848;SDS011;65814;51.134;16.980;2022-12-18T07:41:16;20.40;;;10.80;;
76848;SDS011;65814;51.134;16.980;2022-12-18T07:43:42;31.90;;;17.00;;
76848;SDS011;65814;51.134;16.980;2022-12-18T07:48:42;22.30;;;13.30;;
76848;SDS011;65814;51.134;16.980;2022-12-18T07:51:12;19.80;;;12.10;;
76848;SDS011;65814;51.134;16.980;2022-12-18T07:53:39;25.50;;;12.70;;
76848;SDS011;65814;51.134;16.980;2022-12-18T07:56:09;21.40;;;11.40;;
76848;SDS011;65814;51.134;16.980;2022-12-18T07:58:54;18.90;;;10.80;;
76848;SDS011;65814;51.134;16.980;2022-12-18T08:01:21;20.40;;;10.60;;
76848;SDS011;65814;51.134;16.980;2022-12-18T08:03:48;19.20;;;10.20;;
76848;SDS011;65814;51.134;16.980;2022-12-18T08:06:17;19.60;;;10.70;;
76848;SDS011;65814;51.134;16.980;2022-12-18T08:08:44;22.00;;;11.30;;
76848;SDS011;65814;51.134;16.980;2022-12-18T08:11:11;18.30;;;11.60;;
76848;SDS011;65814;51.134;16.980;2022-12-18T08:13:37;19.10;;;13.20;;
76848;SDS011;65814;51.134;16.980;2022-12-18T08:16:05;19.90;;;12.50;;
76848;SDS011;65814;51.134;16.980;2022-12-18T08:18:33;20.20;;;12.30;;
76848;SDS011;65814;51.134;16.980;2022-12-18T08:21:14;21.40;;;12.00;;
76848;SDS011;65814;51.134;16.980;2022-12-18T08:23:42;19.20;;;10.80;;
76848;SDS011;65814;51.134;16.980;2022-12-18T08:28:39;16.60;;;8.20;;
76848;SDS011;65814;51.134;16.980;2022-12-18T08:31:06;21.60;;;12.80;;
76848;SDS011;65814;51.134;16.980;2022-12-18T08:33:34;24.90;;;12.90;;
76848;SDS011;65814;51.134;16.980;2022-12-18T08:36:01;18.30;;;12.10;;
76848;SDS011;65814;51.134;16.980;2022-12-18T08:38:29;18.10;;;11.80;;
76848;SDS011;65814;51.134;16.980;2022-12-18T08:41:00;17.30;;;11.40;;
76848;SDS011;65814;51.134;16.980;2022-12-18T08:43:28;18.90;;;12.30;;
76848;SDS011;65814;51.134;16.980;2022-12-18T08:46:19;17.00;;;10.30;;
76848;SDS011;65814;51.134;16.980;2022-12-18T08:48:47;17.30;;;11.00;;
76848;SDS011;65814;51.134;16.980;2022-12-18T08:51:15;17.70;;;10.50;;
76848;SDS011;65814;51.134;16.980;2022-12-18T08:53:42;16.00;;;10.40;;
76848;SDS011;65814;51.134;16.980;2022-12-18T08:56:10;19.70;;;12.30;;
76848;SDS011;65814;51.134;16.980;2022-12-18T08:58:37;16.90;;;11.00;;
76848;SDS011;65814;51.134;16.980;2022-12-18T09:01:04;17.10;;;10.00;;
76848;SDS011;65814;51.134;16.980;2022-12-18T09:03:32;20.10;;;11.10;;
76848;SDS011;65814;51.134;16.980;2022-12-18T09:05:59;19.00;;;11.60;;
76848;SDS011;65814;51.134;16.980;2022-12-18T09:08:26;18.80;;;10.90;;
76848;SDS011;65814;51.134;16.980;2022-12-18T09:10:53;23.20;;;13.00;;
76848;SDS011;65814;51.134;16.980;2022-12-18T09:13:20;17.00;;;9.40;;
76848;SDS011;65814;51.134;16.980;2022-12-18T09:15:48;17.80;;;9.70;;
76848;SDS011;65814;51.134;16.980;2022-12-18T09:18:17;21.00;;;11.20;;
76848;SDS011;65814;51.134;16.980;2022-12-18T09:20:45;18.10;;;11.40;;
76848;SDS011;65814;51.134;16.980;2022-12-18T09:23:12;20.50;;;11.30;;
76848;SDS011;65814;51.134;16.980;2022-12-18T09:25:38;19.10;;;10.60;;
76848;SDS011;65814;51.134;16.980;2022-12-18T09:28:09;19.10;;;10.90;;
76848;SDS011;65814;51.134;16.980;2022-12-18T09:30:58;19.80;;;11.40;;
76848;SDS011;65814;51.134;16.980;2022-12-18T09:33:24;17.80;;;10.60;;
76848;SDS011;65814;51.134;16.980;2022-12-18T09:35:50;16.50;;;10.40;;
76848;SDS011;65814;51.134;16.980;2022-12-18T09:38:18;18.70;;;10.70;;
76848;SDS011;65814;51.134;16.980;2022-12-18T09:40:52;18.20;;;10.60;;
76848;SDS011;65814;51.134;16.980;2022-12-18T09:43:30;18.30;;;11.10;;
76848;SDS011;65814;51.134;16.980;2022-12-18T09:48:35;16.80;;;8.10;;
76848;SDS011;65814;51.134;16.980;2022-12-18T09:51:18;20.50;;;10.50;;
76848;SDS011;65814;51.134;16.980;2022-12-18T09:53:50;16.30;;;9.40;;
76848;SDS011;65814;51.134;16.980;2022-12-18T09:56:20;19.00;;;9.60;;
76848;SDS011;65814;51.134;16.980;2022-12-18T09:58:51;20.50;;;11.10;;
76848;SDS011;65814;51.134;16.980;2022-12-18T10:01:26;17.80;;;11.00;;
76848;SDS011;65814;51.134;16.980;2022-12-18T10:04:08;17.10;;;9.70;;
76848;SDS011;65814;51.134;16.980;2022-12-18T10:14:48;17.80;;;10.40;;
76848;SDS011;65814;51.134;16.980;2022-12-18T10:20:13;18.20;;;9.70;;
76848;SDS011;65814;51.134;16.980;2022-12-18T10:22:56;15.40;;;9.70;;
76848;SDS011;65814;51.134;16.980;2022-12-18T10:28:13;19.60;;;11.10;;
76848;SDS011;65814;51.134;16.980;2022-12-18T10:30:41;19.70;;;11.60;;
76848;SDS011;65814;51.134;16.980;2022-12-18T10:33:10;17.90;;;10.60;;
76848;SDS011;65814;51.134;16.980;2022-12-18T10:35:41;22.20;;;11.80;;
76848;SDS011;65814;51.134;16.980;2022-12-18T10:40:49;19.80;;;10.50;;
76848;SDS011;65814;51.134;16.980;2022-12-18T10:43:19;19.20;;;11.10;;
76848;SDS011;65814;51.134;16.980;2022-12-18T10:46:01;29.60;;;17.70;;
76848;SDS011;65814;51.134;16.980;2022-12-18T10:48:28;22.20;;;11.90;;
76848;SDS011;65814;51.134;16.980;2022-12-18T10:50:56;28.80;;;17.10;;
76848;SDS011;65814;51.134;16.980;2022-12-18T10:53:39;22.40;;;12.20;;
76848;SDS011;65814;51.134;16.980;2022-12-18T10:56:07;20.50;;;10.60;;
76848;SDS011;65814;51.134;16.980;2022-12-18T10:58:36;19.20;;;11.50;;
76848;SDS011;65814;51.134;16.980;2022-12-18T11:03:38;27.30;;;19.70;;
76848;SDS011;65814;51.134;16.980;2022-12-18T11:06:09;27.30;;;14.00;;
76848;SDS011;65814;51.134;16.980;2022-12-18T11:08:39;21.70;;;11.90;;
76848;SDS011;65814;51.134;16.980;2022-12-18T11:11:19;25.60;;;12.90;;
76848;SDS011;65814;51.134;16.980;2022-12-18T11:16:51;22.40;;;13.00;;
76848;SDS011;65814;51.134;16.980;2022-12-18T11:19:39;25.40;;;12.20;;
76848;SDS011;65814;51.134;16.980;2022-12-18T11:28:25;22.30;;;12.20;;
76848;SDS011;65814;51.134;16.980;2022-12-18T11:33:56;23.50;;;12.50;;
76848;SDS011;65814;51.134;16.980;2022-12-18T11:36:47;26.30;;;14.80;;
76848;SDS011;65814;51.134;16.980;2022-12-18T11:41:55;25.50;;;13.00;;
76848;SDS011;65814;51.134;16.980;2022-12-18T11:44:57;22.30;;;11.70;;
76848;SDS011;65814;51.134;16.980;2022-12-18T11:47:32;25.40;;;11.20;;
76848;SDS011;65814;51.134;16.980;2022-12-18T11:50:08;21.70;;;11.10;;
76848;SDS011;65814;51.134;16.980;2022-12-18T11:52:39;28.20;;;13.10;;
76848;SDS011;65814;51.134;16.980;2022-12-18T12:00:48;23.20;;;11.10;;
76848;SDS011;65814;51.134;16.980;2022-12-18T12:06:20;19.30;;;10.00;;
76848;SDS011;65814;51.134;16.980;2022-12-18T12:09:11;21.20;;;11.80;;
76848;SDS011;65814;51.134;16.980;2022-12-18T12:14:42;23.20;;;10.70;;
76848;SDS011;65814;51.134;16.980;2022-12-18T12:25:46;15.80;;;10.30;;
76848;SDS011;65814;51.134;16.980;2022-12-18T12:34:01;22.50;;;11.80;;
76848;SDS011;65814;51.134;16.980;2022-12-18T12:36:38;22.10;;;12.90;;
76848;SDS011;65814;51.134;16.980;2022-12-18T12:39:14;23.20;;;12.60;;
76848;SDS011;65814;51.134;16.980;2022-12-18T12:41:45;22.90;;;13.00;;
76848;SDS011;65814;51.134;16.980;2022-12-18T12:44:39;26.10;;;13.20;;
76848;SDS011;65814;51.134;16.980;2022-12-18T12:47:26;24.60;;;11.50;;
76848;SDS011;65814;51.134;16.980;2022-12-18T12:49:58;22.90;;;12.40;;
76848;SDS011;65814;51.134;16.980;2022-12-18T12:55:22;22.30;;;12.70;;
76848;SDS011;65814;51.134;16.980;2022-12-18T13:00:30;28.40;;;12.10;;
76848;SDS011;65814;51.134;16.980;2022-12-18T13:03:12;26.40;;;12.50;;
76848;SDS011;65814;51.134;16.980;2022-12-18T13:08:26;22.60;;;13.40;;
76848;SDS011;65814;51.134;16.980;2022-12-18T13:10:59;22.50;;;12.10;;
76848;SDS011;65814;51.134;16.980;2022-12-18T13:13:53;24.40;;;12.30;;
76848;SDS011;65814;51.134;16.980;2022-12-18T13:16:22;27.80;;;14.40;;
76848;SDS011;65814;51.134;16.980;2022-12-18T13:18:54;30.50;;;14.20;;
76848;SDS011;65814;51.134;16.980;2022-12-18T13:21:28;25.30;;;14.10;;
76848;SDS011;65814;51.134;16.980;2022-12-18T13:23:56;25.30;;;13.00;;
76848;SDS011;65814;51.134;16.980;2022-12-18T13:26:40;23.90;;;13.00;;
76848;SDS011;65814;51.134;16.980;2022-12-18T13:29:07;28.10;;;13.90;;
76848;SDS011;65814;51.134;16.980;2022-12-18T13:34:18;21.20;;;12.70;;
76848;SDS011;65814;51.134;16.980;2022-12-18T13:36:56;27.80;;;13.60;;
76848;SDS011;65814;51.134;16.980;2022-12-18T13:39:57;28.30;;;14.30;;
76848;SDS011;65814;51.134;16.980;2022-12-18T13:48:03;24.20;;;13.50;;
76848;SDS011;65814;51.134;16.980;2022-12-18T13:50:30;26.20;;;14.90;;
76848;SDS011;65814;51.134;16.980;2022-12-18T13:53:02;31.40;;;16.10;;
76848;SDS011;65814;51.134;16.980;2022-12-18T13:55:29;24.20;;;14.00;;
76848;SDS011;65814;51.134;16.980;2022-12-18T13:58:03;27.20;;;13.00;;
76848;SDS011;65814;51.134;16.980;2022-12-18T14:00:31;27.60;;;13.80;;
76848;SDS011;65814;51.134;16.980;2022-12-18T14:02:58;20.90;;;12.90;;
76848;SDS011;65814;51.134;16.980;2022-12-18T14:05:27;27.30;;;14.50;;
76848;SDS011;65814;51.134;16.980;2022-12-18T14:08:07;26.30;;;12.60;;
76848;SDS011;65814;51.134;16.980;2022-12-18T14:10:43;24.10;;;13.60;;
76848;SDS011;65814;51.134;16.980;2022-12-18T14:13:18;26.20;;;14.80;;
76848;SDS011;65814;51.134;16.980;2022-12-18T14:15:50;23.50;;;12.00;;
76848;SDS011;65814;51.134;16.980;2022-12-18T14:20:51;24.50;;;13.50;;
76848;SDS011;65814;51.134;16.980;2022-12-18T14:23:29;32.20;;;17.40;;
76848;SDS011;65814;51.134;16.980;2022-12-18T14:26:01;22.90;;;14.70;;
76848;SDS011;65814;51.134;16.980;2022-12-18T14:28:32;21.60;;;12.20;;
76848;SDS011;65814;51.134;16.980;2022-12-18T14:30:58;23.30;;;13.30;;
76848;SDS011;65814;51.134;16.980;2022-12-18T14:33:26;28.70;;;13.80;;
76848;SDS011;65814;51.134;16.980;2022-12-18T14:38:31;22.90;;;13.90;;
76848;SDS011;65814;51.134;16.980;2022-12-18T14:41:00;23.80;;;13.40;;
76848;SDS011;65814;51.134;16.980;2022-12-18T14:43:32;25.40;;;13.30;;
76848;SDS011;65814;51.134;16.980;2022-12-18T14:46:01;25.30;;;13.30;;
76848;SDS011;65814;51.134;16.980;2022-12-18T14:54:00;25.20;;;12.70;;
76848;SDS011;65814;51.134;16.980;2022-12-18T14:56:35;29.80;;;14.20;;
76848;SDS011;65814;51.134;16.980;2022-12-18T15:01:33;30.90;;;17.50;;
76848;SDS011;65814;51.134;16.980;2022-12-18T15:04:02;23.10;;;13.20;;
76848;SDS011;65814;51.134;16.980;2022-12-18T15:06:34;22.80;;;13.40;;
76848;SDS011;65814;51.134;16.980;2022-12-18T15:09:20;20.70;;;13.00;;
76848;SDS011;65814;51.134;16.980;2022-12-18T15:11:49;26.00;;;14.40;;
76848;SDS011;65814;51.134;16.980;2022-12-18T15:14:30;26.10;;;14.70;;
76848;SDS011;65814;51.134;16.980;2022-12-18T15:17:05;24.00;;;14.40;;
76848;SDS011;65814;51.134;16.980;2022-12-18T15:19:40;24.60;;;13.20;;
76848;SDS011;65814;51.134;16.980;2022-12-18T15:24:53;27.50;;;14.60;;
76848;SDS011;65814;51.134;16.980;2022-12-18T15:32:37;27.60;;;14.20;;
76848;SDS011;65814;51.134;16.980;2022-12-18T15:37:37;34.10;;;17.80;;
76848;SDS011;65814;51.134;16.980;2022-12-18T15:40:06;25.00;;;15.80;;
76848;SDS011;65814;51.134;16.980;2022-12-18T15:42:33;23.40;;;14.00;;
76848;SDS011;65814;51.134;16.980;2022-12-18T15:45:19;28.90;;;15.60;;
76848;SDS011;65814;51.134;16.980;2022-12-18T15:47:48;27.10;;;14.30;;
76848;SDS011;65814;51.134;16.980;2022-12-18T15:50:14;29.40;;;16.50;;
76848;SDS011;65814;51.134;16.980;2022-12-18T15:52:46;32.40;;;17.30;;
76848;SDS011;65814;51.134;16.980;2022-12-18T15:58:03;32.60;;;16.50;;
76848;SDS011;65814;51.134;16.980;2022-12-18T16:00:31;32.20;;;18.50;;
76848;SDS011;65814;51.134;16.980;2022-12-18T16:02:59;32.00;;;18.10;;
76848;SDS011;65814;51.134;16.980;2022-12-18T16:05:26;32.00;;;15.40;;
76848;SDS011;65814;51.134;16.980;2022-12-18T16:07:53;29.50;;;16.30;;
76848;SDS011;65814;51.134;16.980;2022-12-18T16:10:20;37.10;;;19.00;;
76848;SDS011;65814;51.134;16.980;2022-12-18T16:12:47;39.80;;;20.20;;
76848;SDS011;65814;51.134;16.980;2022-12-18T16:15:14;30.00;;;18.30;;
76848;SDS011;65814;51.134;16.980;2022-12-18T16:17:50;29.30;;;16.70;;
76848;SDS011;65814;51.134;16.980;2022-12-18T16:20:19;31.90;;;16.00;;
76848;SDS011;65814;51.134;16.980;2022-12-18T16:22:47;33.80;;;17.20;;
76848;SDS011;65814;51.134;16.980;2022-12-18T16:25:25;34.20;;;17.00;;
76848;SDS011;65814;51.134;16.980;2022-12-18T16:27:54;28.40;;;16.10;;
76848;SDS011;65814;51.134;16.980;2022-12-18T16:30:23;32.80;;;15.70;;
76848;SDS011;65814;51.134;16.980;2022-12-18T16:32:54;34.20;;;16.40;;
76848;SDS011;65814;51.134;16.980;2022-12-18T16:35:21;25.30;;;15.40;;
76848;SDS011;65814;51.134;16.980;2022-12-18T16:37:48;26.80;;;15.00;;
76848;SDS011;65814;51.134;16.980;2022-12-18T16:40:15;31.90;;;16.80;;
76848;SDS011;65814;51.134;16.980;2022-12-18T16:42:43;25.40;;;14.10;;
76848;SDS011;65814;51.134;16.980;2022-12-18T16:45:13;29.80;;;15.10;;
76848;SDS011;65814;51.134;16.980;2022-12-18T16:47:42;32.40;;;17.30;;
76848;SDS011;65814;51.134;16.980;2022-12-18T16:50:09;33.30;;;17.60;;
76848;SDS011;65814;51.134;16.980;2022-12-18T16:52:35;33.80;;;17.20;;
76848;SDS011;65814;51.134;16.980;2022-12-18T16:55:02;27.70;;;14.30;;
76848;SDS011;65814;51.134;16.980;2022-12-18T16:57:29;26.50;;;14.50;;
76848;SDS011;65814;51.134;16.980;2022-12-18T16:59:56;34.70;;;17.80;;
76848;SDS011;65814;51.134;16.980;2022-12-18T17:02:30;27.70;;;16.10;;
76848;SDS011;65814;51.134;16.980;2022-12-18T17:04:58;32.10;;;16.00;;
76848;SDS011;65814;51.134;16.980;2022-12-18T17:07:25;29.30;;;14.50;;